Skip Navigation Links
NOAA logo - Click to go to the NOAA homepage
NOAA's National Weather Service
Alaska Aviation Weather Unit
  NWS logo - Click to go to the NWS homepage
Left Navbar Graphic     21 AKDT = 05 GMT

   
NOAA is celebrating 200 years of science, service, and stewardship. Visit the NOAA 200th celebration Web site to learn more.
USA.gov is the U.S. Government's official Web portal to all Federal, state and local government Web resources and services.
Facebook
NWS on Facebook

Important Change Regarding the AAWU Web Presence

 

Over the last several months, the AAWU has been working to navigate its webpages to a nationally supported server. Security, as well as other needs, have necessitated the change.  In the process, we have made an effort to enhance the functionality of our website, as well as some of our products. As of June 27, 2017, aawu.arh.noaa.gov will be discontinued. The new AAWU web address is weather.gov/aawu. It is now live and will run in-parallel with the old site until it is discontinued. Please send any feedback or questions regarding the new webpages to nws.ar.aawu.webauthors@noaa.gov.  Thank you for your patience during this time of transition.
AAWU Home :: Display TAF Add Bookmark
TAF CYDB 242338Z 2500/2512 13007KT P6SM SCT040 BKN080 TEMPO 2500/2509
     P6SM -SHRA BKN040
     BECMG 2505/2507 VRB03KT
    FM250900 VRB03KT P6SM FEW020 OVC040 TEMPO 2509/2512 5SM -SHRA BR
     PROB30 2509/2512 5SM -SHRA BR BKN020 OVC040
    RMK NXT FCST BY 250600Z=

METAR CYDB 242300Z 15007KT 090V160 30SM FEW055TCU BKN075 BKN250 15/04 A3003 RMK TCU2AC3CI1 SLP190 DENSITY ALT 3200FT= METAR CYDB 250000Z 10007KT 30SM FEW055TCU BKN075 15/04 A3001 RMK TCU2AC5 SLP187 DENSITY ALT 3200FT= METAR CYDB 250100Z 12004KT 30SM FEW055TCU BKN075 14/04 A3000 RMK TCU2AC4 CLIMAT 16.0/7.0/0.2 MM LAST STFD OBS/NXT 251300Z SLP182 DENSITY ALT 3200FT= METAR CYDB 250200Z AUTO 09004KT 9SM BKN080 15/05 A2999 RMK SLP178 DENSITY ALT 3100FT= METAR CYDB 250300Z AUTO 11005KT 9SM OVC080 15/05 A2998 RMK SLP177 DENSITY ALT 3100FT= METAR CYDB 250400Z AUTO 14009KT 090V160 9SM BKN085 BKN190 15/05 A2998 RMK SLP174 DENSITY ALT 3100FT= METAR CYDB 250500Z AUTO 12006KT 9SM FEW065 OVC085 13/06 A2998 RMK SLP175 DENSITY ALT 2900FT=
 Alaska TAF Map

NOAA's National Weather Service
Alaska Aviation Weather Unit
6930 Sand Lake Road
Anchorage, AK 99502-1845
Disclaimer
Credits
Glossary
Privacy Policy
About Us
Career Opportunities
Contact AAWU Internet Services Site last modified: April, 17th 2012